Virginiborg — PBDL — position and weather

sailwx.info

Track history (hours):
 
Tides and Currents Weather Stations Pressure Air Temp Water Temp Dewpoint Dewpoint Depression Visibility Wind Speed Wind Dir Waves Ship Positions

Virginiborg

Last reported at 2015-Mar-04 05:28 UTC. Time now 2015-Mar-04 15:17 UTC.
Position N 57°14' E 008°33'.

Length 132 m; draft 8.3 m.

Type: Cargo ship. MMSI: 244632000.

Date/timePositionNaut miles runAvg speedWind from/ knotsBaromVisibWave heightAir tempDewpointWater temp
2015-Mar-04 05:28N 57°14' E 008°33'7310.6
2015-Mar-03 22:33N 57°49' E 010°33'8 8.4
2015-Mar-03 21:33N 57°44' E 010°46'7 1.1
2015-Mar-03 15:25N 57°41' E 010°35'8 9.2
2015-Mar-03 14:33N 57°38' E 010°49'1212.2
2015-Mar-03 13:34N 57°32' E 011°09'1211.5
2015-Mar-03 12:34N 57°26' E 011°27'1212.1
2015-Mar-03 11:34N 57°15' E 011°35'1212.1
2015-Mar-03 10:32N 57°03' E 011°43'1212.1
2015-Mar-03 09:33N 56°52' E 011°50'1111.2
2015-Mar-03 08:34N 56°41' E 011°49'1412.7
2015-Mar-03 07:29N 56°29' E 011°37'11110.0
2015-Mar-02 20:24N 54°40' E 010°60'911.0
2015-Mar-02 19:33N 54°35' E 011°14'1010.5
2015-Mar-02 18:34N 54°31' E 011°30'1010.1
2015-Mar-02 17:34N 54°27' E 011°46'10 9.7
2015-Mar-02 16:32N 54°27' E 012°03'9 8.8
2015-Mar-02 15:33N 54°33' E 012°13'10 9.8
2015-Mar-02 14:33N 54°40' E 012°24'1110.6
2015-Mar-02 13:33N 54°46' E 012°40'1110.9
2015-Mar-02 12:31N 54°50' E 012°57'2311.4
2015-Mar-02 10:29N 54°59' E 013°35'1211.7
2015-Mar-02 09:29N 55°03' E 013°54'1111.6
2015-Mar-02 08:34N 55°09' E 014°09'1212.2
2015-Mar-02 07:34N 55°19' E 014°23'1211.9
2015-Mar-02 06:33N 55°28' E 014°37'1212.1
2015-Mar-02 05:34N 55°34' E 014°55'1212.1
2015-Mar-02 04:33N 55°40' E 015°14'1211.9
2015-Mar-02 03:34N 55°46' E 015°32'33710.9
2015-Feb-28 20:32N 59°37' E 023°11'1211.8
2015-Feb-28 19:33N 59°40' E 023°33'1311.9
2015-Feb-28 18:25N 59°44' E 023°59'1612.0
2015-Feb-28 17:04N 59°48' E 024°30'612.1
2015-Feb-28 16:33N 59°49' E 024°42'1512.1
2015-Feb-28 15:19N 59°52' E 025°11'912.3
2015-Feb-28 14:34N 59°53' E 025°29'1311.7
2015-Feb-28 13:26N 59°58' E 025°54'1212.0
2015-Feb-28 12:28N 60°06' E 026°11'1112.0
2015-Feb-28 11:32N 60°14' E 026°25'1111.1
2015-Feb-28 10:33N 60°24' E 026°17'1 0.8
2015-Feb-28 09:32N 60°25' E 026°15'0 0.0
2015-Feb-28 08:32N 60°25' E 026°15'0 0.0
2015-Feb-28 07:26N 60°25' E 026°15'0 0.0
2015-Feb-28 06:31N 60°25' E 026°15'0 0.0
2015-Feb-28 05:31N 60°25' E 026°15'0 0.0
2015-Feb-28 04:33N 60°25' E 026°15'0 0.0
2015-Feb-28 03:33N 60°25' E 026°15'0 0.0
2015-Feb-28 02:32N 60°25' E 026°15'0 0.0
2015-Feb-28 01:32N 60°25' E 026°15'0 0.0
2015-Feb-28 00:32N 60°25' E 026°15'0 0.0
2015-Feb-27 23:31N 60°25' E 026°15'0 0.0
2015-Feb-27 22:31N 60°25' E 026°15'0 0.0
2015-Feb-27 21:33N 60°25' E 026°15'0 0.0
2015-Feb-27 20:33N 60°25' E 026°15'0 0.0
2015-Feb-27 19:32N 60°25' E 026°15'0 0.0
2015-Feb-27 18:32N 60°25' E 026°15'0 0.0
2015-Feb-27 17:32N 60°25' E 026°15'0 0.0
2015-Feb-27 16:31N 60°25' E 026°15'0 0.0
2015-Feb-27 15:31N 60°25' E 026°15'0 0.0
2015-Feb-27 14:33N 60°25' E 026°15'0 0.0
2015-Feb-27 13:33N 60°25' E 026°15'0 0.0
2015-Feb-27 12:32N 60°25' E 026°15'0 0.0
2015-Feb-27 11:32N 60°25' E 026°15'0 0.0
2015-Feb-27 10:32N 60°25' E 026°15'0 0.0
2015-Feb-27 09:31N 60°25' E 026°15'0 0.0
2015-Feb-27 08:31N 60°25' E 026°15'0 0.0
2015-Feb-27 07:33N 60°25' E 026°15'0 0.0
2015-Feb-27 06:33N 60°25' E 026°15'0 0.0
2015-Feb-27 05:32N 60°25' E 026°15'0 0.0
2015-Feb-27 04:32N 60°25' E 026°15'0 0.0
2015-Feb-27 03:31N 60°25' E 026°15'0 0.0
2015-Feb-27 02:31N 60°25' E 026°15'0 0.0
2015-Feb-27 01:31N 60°25' E 026°15'0 0.0
2015-Feb-27 00:33N 60°25' E 026°15'0 0.0
2015-Feb-26 23:33N 60°25' E 026°15'0 0.0
2015-Feb-26 22:32N 60°25' E 026°15'0 0.0
2015-Feb-26 21:32N 60°25' E 026°15'0 0.0
2015-Feb-26 20:31N 60°25' E 026°15'0 0.0
2015-Feb-26 19:31N 60°25' E 026°15'0 0.0
2015-Feb-26 18:34N 60°25' E 026°15'8 7.6
2015-Feb-26 17:33N 60°18' E 026°24'1212.0
2015-Feb-26 16:33N 60°23' E 026°46'1111.2
2015-Feb-26 15:33N 60°22' E 027°09'9 8.9
2015-Feb-26 14:32N 60°31' E 027°10'0 0.0
2015-Feb-26 08:11N 60°32' E 027°10'0 0.0
2015-Feb-26 01:32N 60°32' E 027°10'0 0.0
2015-Feb-25 21:34N 60°32' E 027°10'0 0.0
2015-Feb-25 20:06N 60°32' E 027°10'0 0.0
2015-Feb-25 19:24N 60°32' E 027°10'0 0.0
2015-Feb-25 16:04N 60°32' E 027°10'0 0.0
2015-Feb-25 15:10N 60°32' E 027°10'0 0.0
2015-Feb-25 10:32N 60°32' E 027°10'0 0.0
2015-Feb-25 09:28N 60°32' E 027°10'0 0.0
2015-Feb-25 08:31N 60°32' E 027°10'0 0.0
2015-Feb-25 07:30N 60°32' E 027°10'0 0.0
2015-Feb-25 06:30N 60°32' E 027°10'0 0.0
2015-Feb-25 05:27N 60°32' E 027°10'0 0.0
2015-Feb-25 04:26N 60°32' E 027°10'0 0.0
2015-Feb-25 03:23N 60°32' E 027°10'0 0.0
2015-Feb-25 00:33N 60°32' E 027°10'0 0.0
2015-Feb-24 21:11N 60°32' E 027°10'0 0.0
2015-Feb-24 19:19N 60°32' E 027°10'0 0.0
2015-Feb-24 18:25N 60°32' E 027°10'0 0.0
2015-Feb-24 17:18N 60°32' E 027°10'0 0.0
2015-Feb-24 15:26N 60°32' E 027°10'0 0.0
2015-Feb-24 14:29N 60°32' E 027°10'0 0.0
2015-Feb-24 13:29N 60°32' E 027°10'0 0.0
2015-Feb-24 12:33N 60°32' E 027°10'0 0.0
2015-Feb-24 11:33N 60°32' E 027°10'9 9.1
2015-Feb-24 10:33N 60°23' E 027°06'1212.5
2015-Feb-24 09:34N 60°22' E 026°41'1312.8
2015-Feb-24 08:33N 60°13' E 026°24'1414.0
2015-Feb-24 07:32N 60°01' E 026°06'3612.0
2015-Feb-24 04:32N 59°47' E 024°59'1212.2
2015-Feb-24 03:33N 59°44' E 024°36'1812.7
2015-Feb-24 02:07N 59°39' E 024°02'713.0
2015-Feb-24 01:33N 59°37' E 023°48'1312.9
2015-Feb-24 00:33N 59°33' E 023°24'35112.5
2015-Feb-22 20:33N 55°37' E 015°21'1312.7
2015-Feb-22 19:33N 55°31' E 015°01'1313.1
2015-Feb-22 18:33N 55°24' E 014°41'1313.4
2015-Feb-22 17:33N 55°14' E 014°26'1211.8
2015-Feb-22 16:33N 55°11' E 014°06'1413.3
2015-Feb-22 15:31N 55°12' E 013°42'1713.3
2015-Feb-22 14:13N 55°14' E 013°12'913.4
2015-Feb-22 13:33N 55°15' E 012°56'1211.8
2015-Feb-22 12:33N 55°20' E 012°38'1312.7
2015-Feb-22 11:34N 55°33' E 012°42'1211.8
2015-Feb-22 10:34N 55°44' E 012°41'1212.3
2015-Feb-22 09:33N 55°57' E 012°38'1211.8
2015-Feb-22 08:33N 56°07' E 012°30'3712.3
2015-Feb-22 05:33N 56°39' E 011°54'  
Track history (hours):
 
Tides and Currents Weather Stations Pressure Air Temp Water Temp Dewpoint Dewpoint Depression Visibility Wind Speed Wind Dir Waves Ship Positions

Virginiborg

Last reported at 2015-Mar-04 05:28 UTC. Time now 2015-Mar-04 15:17 UTC.
Position N 57°14' E 008°33'.

Length 132 m; draft 8.3 m.

Type: Cargo ship. MMSI: 244632000.

Date/timePositionNaut miles runAvg speedWind from/ knotsBaromVisibWave heightAir tempDewpointWater temp
2015-Mar-04 05:28N 57°14' E 008°33'7310.6
2015-Mar-03 22:33N 57°49' E 010°33'8 8.4
2015-Mar-03 21:33N 57°44' E 010°46'7 1.1
2015-Mar-03 15:25N 57°41' E 010°35'8 9.2
2015-Mar-03 14:33N 57°38' E 010°49'1212.2
2015-Mar-03 13:34N 57°32' E 011°09'1211.5
2015-Mar-03 12:34N 57°26' E 011°27'1212.1
2015-Mar-03 11:34N 57°15' E 011°35'1212.1
2015-Mar-03 10:32N 57°03' E 011°43'1212.1
2015-Mar-03 09:33N 56°52' E 011°50'1111.2
2015-Mar-03 08:34N 56°41' E 011°49'1412.7
2015-Mar-03 07:29N 56°29' E 011°37'11110.0
2015-Mar-02 20:24N 54°40' E 010°60'911.0
2015-Mar-02 19:33N 54°35' E 011°14'1010.5
2015-Mar-02 18:34N 54°31' E 011°30'1010.1
2015-Mar-02 17:34N 54°27' E 011°46'10 9.7
2015-Mar-02 16:32N 54°27' E 012°03'9 8.8
2015-Mar-02 15:33N 54°33' E 012°13'10 9.8
2015-Mar-02 14:33N 54°40' E 012°24'1110.6
2015-Mar-02 13:33N 54°46' E 012°40'1110.9
2015-Mar-02 12:31N 54°50' E 012°57'2311.4
2015-Mar-02 10:29N 54°59' E 013°35'1211.7
2015-Mar-02 09:29N 55°03' E 013°54'1111.6
2015-Mar-02 08:34N 55°09' E 014°09'1212.2
2015-Mar-02 07:34N 55°19' E 014°23'1211.9
2015-Mar-02 06:33N 55°28' E 014°37'1212.1
2015-Mar-02 05:34N 55°34' E 014°55'1212.1
2015-Mar-02 04:33N 55°40' E 015°14'1211.9
2015-Mar-02 03:34N 55°46' E 015°32'33710.9
2015-Feb-28 20:32N 59°37' E 023°11'1211.8
2015-Feb-28 19:33N 59°40' E 023°33'1311.9
2015-Feb-28 18:25N 59°44' E 023°59'1612.0
2015-Feb-28 17:04N 59°48' E 024°30'612.1
2015-Feb-28 16:33N 59°49' E 024°42'1512.1
2015-Feb-28 15:19N 59°52' E 025°11'912.3
2015-Feb-28 14:34N 59°53' E 025°29'1311.7
2015-Feb-28 13:26N 59°58' E 025°54'1212.0
2015-Feb-28 12:28N 60°06' E 026°11'1112.0
2015-Feb-28 11:32N 60°14' E 026°25'1111.1
2015-Feb-28 10:33N 60°24' E 026°17'1 0.8
2015-Feb-28 09:32N 60°25' E 026°15'0 0.0
2015-Feb-28 08:32N 60°25' E 026°15'0 0.0
2015-Feb-28 07:26N 60°25' E 026°15'0 0.0
2015-Feb-28 06:31N 60°25' E 026°15'0 0.0
2015-Feb-28 05:31N 60°25' E 026°15'0 0.0
2015-Feb-28 04:33N 60°25' E 026°15'0 0.0
2015-Feb-28 03:33N 60°25' E 026°15'0 0.0
2015-Feb-28 02:32N 60°25' E 026°15'0 0.0
2015-Feb-28 01:32N 60°25' E 026°15'0 0.0
2015-Feb-28 00:32N 60°25' E 026°15'0 0.0
2015-Feb-27 23:31N 60°25' E 026°15'0 0.0
2015-Feb-27 22:31N 60°25' E 026°15'0 0.0
2015-Feb-27 21:33N 60°25' E 026°15'0 0.0
2015-Feb-27 20:33N 60°25' E 026°15'0 0.0
2015-Feb-27 19:32N 60°25' E 026°15'0 0.0
2015-Feb-27 18:32N 60°25' E 026°15'0 0.0
2015-Feb-27 17:32N 60°25' E 026°15'0 0.0
2015-Feb-27 16:31N 60°25' E 026°15'0 0.0
2015-Feb-27 15:31N 60°25' E 026°15'0 0.0
2015-Feb-27 14:33N 60°25' E 026°15'0 0.0
2015-Feb-27 13:33N 60°25' E 026°15'0 0.0
2015-Feb-27 12:32N 60°25' E 026°15'0 0.0
2015-Feb-27 11:32N 60°25' E 026°15'0 0.0
2015-Feb-27 10:32N 60°25' E 026°15'0 0.0
2015-Feb-27 09:31N 60°25' E 026°15'0 0.0
2015-Feb-27 08:31N 60°25' E 026°15'0 0.0
2015-Feb-27 07:33N 60°25' E 026°15'0 0.0
2015-Feb-27 06:33N 60°25' E 026°15'0 0.0
2015-Feb-27 05:32N 60°25' E 026°15'0 0.0
2015-Feb-27 04:32N 60°25' E 026°15'0 0.0
2015-Feb-27 03:31N 60°25' E 026°15'0 0.0
2015-Feb-27 02:31N 60°25' E 026°15'0 0.0
2015-Feb-27 01:31N 60°25' E 026°15'0 0.0
2015-Feb-27 00:33N 60°25' E 026°15'0 0.0
2015-Feb-26 23:33N 60°25' E 026°15'0 0.0
2015-Feb-26 22:32N 60°25' E 026°15'0 0.0
2015-Feb-26 21:32N 60°25' E 026°15'0 0.0
2015-Feb-26 20:31N 60°25' E 026°15'0 0.0
2015-Feb-26 19:31N 60°25' E 026°15'0 0.0
2015-Feb-26 18:34N 60°25' E 026°15'8 7.6
2015-Feb-26 17:33N 60°18' E 026°24'1212.0
2015-Feb-26 16:33N 60°23' E 026°46'1111.2
2015-Feb-26 15:33N 60°22' E 027°09'9 8.9
2015-Feb-26 14:32N 60°31' E 027°10'0 0.0
2015-Feb-26 08:11N 60°32' E 027°10'0 0.0
2015-Feb-26 01:32N 60°32' E 027°10'0 0.0
2015-Feb-25 21:34N 60°32' E 027°10'0 0.0
2015-Feb-25 20:06N 60°32' E 027°10'0 0.0
2015-Feb-25 19:24N 60°32' E 027°10'0 0.0
2015-Feb-25 16:04N 60°32' E 027°10'0 0.0
2015-Feb-25 15:10N 60°32' E 027°10'0 0.0
2015-Feb-25 10:32N 60°32' E 027°10'0 0.0
2015-Feb-25 09:28N 60°32' E 027°10'0 0.0
2015-Feb-25 08:31N 60°32' E 027°10'0 0.0
2015-Feb-25 07:30N 60°32' E 027°10'0 0.0
2015-Feb-25 06:30N 60°32' E 027°10'0 0.0
2015-Feb-25 05:27N 60°32' E 027°10'0 0.0
2015-Feb-25 04:26N 60°32' E 027°10'0 0.0
2015-Feb-25 03:23N 60°32' E 027°10'0 0.0
2015-Feb-25 00:33N 60°32' E 027°10'0 0.0
2015-Feb-24 21:11N 60°32' E 027°10'0 0.0
2015-Feb-24 19:19N 60°32' E 027°10'0 0.0
2015-Feb-24 18:25N 60°32' E 027°10'0 0.0
2015-Feb-24 17:18N 60°32' E 027°10'0 0.0
2015-Feb-24 15:26N 60°32' E 027°10'0 0.0
2015-Feb-24 14:29N 60°32' E 027°10'0 0.0
2015-Feb-24 13:29N 60°32' E 027°10'0 0.0
2015-Feb-24 12:33N 60°32' E 027°10'0 0.0
2015-Feb-24 11:33N 60°32' E 027°10'9 9.1
2015-Feb-24 10:33N 60°23' E 027°06'1212.5
2015-Feb-24 09:34N 60°22' E 026°41'1312.8
2015-Feb-24 08:33N 60°13' E 026°24'1414.0
2015-Feb-24 07:32N 60°01' E 026°06'3612.0
2015-Feb-24 04:32N 59°47' E 024°59'1212.2
2015-Feb-24 03:33N 59°44' E 024°36'1812.7
2015-Feb-24 02:07N 59°39' E 024°02'713.0
2015-Feb-24 01:33N 59°37' E 023°48'1312.9
2015-Feb-24 00:33N 59°33' E 023°24'35112.5
2015-Feb-22 20:33N 55°37' E 015°21'1312.7
2015-Feb-22 19:33N 55°31' E 015°01'1313.1
2015-Feb-22 18:33N 55°24' E 014°41'1313.4
2015-Feb-22 17:33N 55°14' E 014°26'1211.8
2015-Feb-22 16:33N 55°11' E 014°06'1413.3
2015-Feb-22 15:31N 55°12' E 013°42'1713.3
2015-Feb-22 14:13N 55°14' E 013°12'913.4
2015-Feb-22 13:33N 55°15' E 012°56'1211.8
2015-Feb-22 12:33N 55°20' E 012°38'1312.7
2015-Feb-22 11:34N 55°33' E 012°42'1211.8
2015-Feb-22 10:34N 55°44' E 012°41'1212.3
2015-Feb-22 09:33N 55°57' E 012°38'1211.8
2015-Feb-22 08:33N 56°07' E 012°30'3712.3
2015-Feb-22 05:33N 56°39' E 011°54'  

Dump ship's entire track history